sensor_id;sensor_type;location;lat;lon;timestamp;P1;durP1;ratioP1;P2;durP2;ratioP2
8737;SDS011;4405;49.272;8.590;2022-12-18T00:01:47;47.67;;;22.23;;
8737;SDS011;4405;49.272;8.590;2022-12-18T00:04:15;46.70;;;22.43;;
8737;SDS011;4405;49.272;8.590;2022-12-18T00:06:43;46.20;;;22.83;;
8737;SDS011;4405;49.272;8.590;2022-12-18T00:09:10;48.53;;;22.07;;
8737;SDS011;4405;49.272;8.590;2022-12-18T00:11:36;43.40;;;22.90;;
8737;SDS011;4405;49.272;8.590;2022-12-18T00:14:04;56.67;;;29.17;;
8737;SDS011;4405;49.272;8.590;2022-12-18T00:16:30;53.37;;;25.60;;
8737;SDS011;4405;49.272;8.590;2022-12-18T00:19:00;44.63;;;21.43;;
8737;SDS011;4405;49.272;8.590;2022-12-18T00:21:27;43.10;;;20.70;;
8737;SDS011;4405;49.272;8.590;2022-12-18T00:23:53;50.10;;;24.47;;
8737;SDS011;4405;49.272;8.590;2022-12-18T00:26:20;45.17;;;21.70;;
8737;SDS011;4405;49.272;8.590;2022-12-18T00:28:48;58.37;;;24.30;;
8737;SDS011;4405;49.272;8.590;2022-12-18T00:31:16;58.17;;;25.30;;
8737;SDS011;4405;49.272;8.590;2022-12-18T00:33:43;60.03;;;24.70;;
8737;SDS011;4405;49.272;8.590;2022-12-18T00:36:10;43.00;;;21.30;;
8737;SDS011;4405;49.272;8.590;2022-12-18T00:38:38;48.30;;;20.87;;
8737;SDS011;4405;49.272;8.590;2022-12-18T00:41:04;64.13;;;26.27;;
8737;SDS011;4405;49.272;8.590;2022-12-18T00:43:33;47.43;;;23.03;;
8737;SDS011;4405;49.272;8.590;2022-12-18T00:45:59;42.90;;;21.97;;
8737;SDS011;4405;49.272;8.590;2022-12-18T00:48:27;43.13;;;20.93;;
8737;SDS011;4405;49.272;8.590;2022-12-18T00:50:53;47.50;;;22.33;;
8737;SDS011;4405;49.272;8.590;2022-12-18T00:53:19;46.00;;;22.10;;
8737;SDS011;4405;49.272;8.590;2022-12-18T00:55:46;44.83;;;21.70;;
8737;SDS011;4405;49.272;8.590;2022-12-18T00:58:13;49.23;;;22.70;;
8737;SDS011;4405;49.272;8.590;2022-12-18T01:00:39;45.77;;;21.93;;
8737;SDS011;4405;49.272;8.590;2022-12-18T01:03:06;43.60;;;20.97;;
8737;SDS011;4405;49.272;8.590;2022-12-18T01:05:33;47.93;;;21.17;;
8737;SDS011;4405;49.272;8.590;2022-12-18T01:08:00;48.80;;;22.33;;
8737;SDS011;4405;49.272;8.590;2022-12-18T01:10:26;49.77;;;21.70;;
8737;SDS011;4405;49.272;8.590;2022-12-18T01:12:52;46.90;;;23.03;;
8737;SDS011;4405;49.272;8.590;2022-12-18T01:15:19;46.37;;;21.20;;
8737;SDS011;4405;49.272;8.590;2022-12-18T01:17:45;50.00;;;22.67;;
8737;SDS011;4405;49.272;8.590;2022-12-18T01:20:12;44.77;;;22.07;;
8737;SDS011;4405;49.272;8.590;2022-12-18T01:22:40;46.33;;;21.67;;
8737;SDS011;4405;49.272;8.590;2022-12-18T01:25:06;48.60;;;22.33;;
8737;SDS011;4405;49.272;8.590;2022-12-18T01:27:33;44.07;;;21.87;;
8737;SDS011;4405;49.272;8.590;2022-12-18T01:29:59;39.97;;;20.53;;
8737;SDS011;4405;49.272;8.590;2022-12-18T01:32:26;50.93;;;21.77;;
8737;SDS011;4405;49.272;8.590;2022-12-18T01:34:52;48.83;;;21.83;;
8737;SDS011;4405;49.272;8.590;2022-12-18T01:37:19;46.73;;;23.13;;
8737;SDS011;4405;49.272;8.590;2022-12-18T01:39:46;43.67;;;21.10;;
8737;SDS011;4405;49.272;8.590;2022-12-18T01:42:14;44.30;;;21.57;;
8737;SDS011;4405;49.272;8.590;2022-12-18T01:44:57;44.83;;;20.57;;
8737;SDS011;4405;49.272;8.590;2022-12-18T01:47:24;50.97;;;22.17;;
8737;SDS011;4405;49.272;8.590;2022-12-18T01:49:51;48.13;;;21.40;;
8737;SDS011;4405;49.272;8.590;2022-12-18T01:52:17;53.93;;;23.07;;
8737;SDS011;4405;49.272;8.590;2022-12-18T01:54:46;52.47;;;22.07;;
8737;SDS011;4405;49.272;8.590;2022-12-18T01:57:13;46.83;;;21.70;;
8737;SDS011;4405;49.272;8.590;2022-12-18T01:59:39;51.17;;;21.67;;
8737;SDS011;4405;49.272;8.590;2022-12-18T02:02:07;45.30;;;21.23;;
8737;SDS011;4405;49.272;8.590;2022-12-18T02:04:33;46.80;;;21.47;;
8737;SDS011;4405;49.272;8.590;2022-12-18T02:07:02;49.80;;;21.97;;
8737;SDS011;4405;49.272;8.590;2022-12-18T02:09:31;47.87;;;20.87;;
8737;SDS011;4405;49.272;8.590;2022-12-18T02:12:04;45.90;;;22.03;;
8737;SDS011;4405;49.272;8.590;2022-12-18T02:14:33;48.90;;;21.40;;
8737;SDS011;4405;49.272;8.590;2022-12-18T02:17:03;90.33;;;32.83;;
8737;SDS011;4405;49.272;8.590;2022-12-18T02:19:39;55.50;;;24.93;;
8737;SDS011;4405;49.272;8.590;2022-12-18T02:22:11;46.13;;;22.03;;
8737;SDS011;4405;49.272;8.590;2022-12-18T02:24:41;49.60;;;21.93;;
8737;SDS011;4405;49.272;8.590;2022-12-18T02:27:12;44.87;;;21.10;;
8737;SDS011;4405;49.272;8.590;2022-12-18T02:29:40;46.93;;;21.47;;
8737;SDS011;4405;49.272;8.590;2022-12-18T02:32:09;48.20;;;21.43;;
8737;SDS011;4405;49.272;8.590;2022-12-18T02:34:37;44.43;;;20.57;;
8737;SDS011;4405;49.272;8.590;2022-12-18T02:37:04;44.23;;;20.57;;
8737;SDS011;4405;49.272;8.590;2022-12-18T02:39:32;45.23;;;21.10;;
8737;SDS011;4405;49.272;8.590;2022-12-18T02:41:59;42.97;;;20.10;;
8737;SDS011;4405;49.272;8.590;2022-12-18T02:44:28;46.20;;;21.43;;
8737;SDS011;4405;49.272;8.590;2022-12-18T02:46:55;46.17;;;20.67;;
8737;SDS011;4405;49.272;8.590;2022-12-18T02:49:24;43.77;;;20.40;;
8737;SDS011;4405;49.272;8.590;2022-12-18T02:51:53;54.10;;;22.03;;
8737;SDS011;4405;49.272;8.590;2022-12-18T02:54:23;45.03;;;20.40;;
8737;SDS011;4405;49.272;8.590;2022-12-18T02:56:53;42.07;;;20.13;;
8737;SDS011;4405;49.272;8.590;2022-12-18T02:59:22;43.40;;;19.70;;
8737;SDS011;4405;49.272;8.590;2022-12-18T03:01:53;43.73;;;19.60;;
8737;SDS011;4405;49.272;8.590;2022-12-18T03:04:22;45.50;;;20.07;;
8737;SDS011;4405;49.272;8.590;2022-12-18T03:06:53;40.53;;;18.70;;
8737;SDS011;4405;49.272;8.590;2022-12-18T03:09:21;41.77;;;18.80;;
8737;SDS011;4405;49.272;8.590;2022-12-18T03:11:50;39.23;;;19.63;;
8737;SDS011;4405;49.272;8.590;2022-12-18T03:14:36;41.60;;;18.80;;
8737;SDS011;4405;49.272;8.590;2022-12-18T03:17:05;43.50;;;19.70;;
8737;SDS011;4405;49.272;8.590;2022-12-18T03:19:34;42.73;;;20.43;;
8737;SDS011;4405;49.272;8.590;2022-12-18T03:22:02;43.03;;;19.97;;
8737;SDS011;4405;49.272;8.590;2022-12-18T03:24:29;42.60;;;19.77;;
8737;SDS011;4405;49.272;8.590;2022-12-18T03:26:58;45.43;;;19.87;;
8737;SDS011;4405;49.272;8.590;2022-12-18T03:29:27;42.77;;;19.97;;
8737;SDS011;4405;49.272;8.590;2022-12-18T03:31:56;47.83;;;21.07;;
8737;SDS011;4405;49.272;8.590;2022-12-18T03:34:26;43.83;;;19.93;;
8737;SDS011;4405;49.272;8.590;2022-12-18T03:36:55;45.33;;;18.90;;
8737;SDS011;4405;49.272;8.590;2022-12-18T03:39:21;41.50;;;18.70;;
8737;SDS011;4405;49.272;8.590;2022-12-18T03:41:49;42.53;;;19.23;;
8737;SDS011;4405;49.272;8.590;2022-12-18T03:44:19;45.03;;;20.57;;
8737;SDS011;4405;49.272;8.590;2022-12-18T03:46:46;42.60;;;18.70;;
8737;SDS011;4405;49.272;8.590;2022-12-18T03:49:17;43.03;;;19.63;;
8737;SDS011;4405;49.272;8.590;2022-12-18T03:51:49;42.07;;;19.50;;
8737;SDS011;4405;49.272;8.590;2022-12-18T03:54:17;39.87;;;19.70;;
8737;SDS011;4405;49.272;8.590;2022-12-18T03:56:45;43.57;;;19.33;;
8737;SDS011;4405;49.272;8.590;2022-12-18T03:59:12;38.83;;;19.00;;
8737;SDS011;4405;49.272;8.590;2022-12-18T04:01:40;47.80;;;19.73;;
8737;SDS011;4405;49.272;8.590;2022-12-18T04:04:08;42.47;;;18.90;;
8737;SDS011;4405;49.272;8.590;2022-12-18T04:06:36;40.03;;;18.97;;
8737;SDS011;4405;49.272;8.590;2022-12-18T04:09:04;42.90;;;19.87;;
8737;SDS011;4405;49.272;8.590;2022-12-18T04:11:30;36.40;;;18.30;;
8737;SDS011;4405;49.272;8.590;2022-12-18T04:13:57;37.13;;;17.83;;
8737;SDS011;4405;49.272;8.590;2022-12-18T04:16:24;38.23;;;19.00;;
8737;SDS011;4405;49.272;8.590;2022-12-18T04:18:50;39.20;;;18.77;;
8737;SDS011;4405;49.272;8.590;2022-12-18T04:21:16;38.47;;;18.50;;
8737;SDS011;4405;49.272;8.590;2022-12-18T04:23:43;36.03;;;17.67;;
8737;SDS011;4405;49.272;8.590;2022-12-18T04:26:10;33.53;;;18.03;;
8737;SDS011;4405;49.272;8.590;2022-12-18T04:28:37;40.47;;;19.13;;
8737;SDS011;4405;49.272;8.590;2022-12-18T04:31:03;43.53;;;18.50;;
8737;SDS011;4405;49.272;8.590;2022-12-18T04:33:29;38.93;;;18.00;;
8737;SDS011;4405;49.272;8.590;2022-12-18T04:35:56;36.10;;;17.63;;
8737;SDS011;4405;49.272;8.590;2022-12-18T04:38:22;36.80;;;18.00;;
8737;SDS011;4405;49.272;8.590;2022-12-18T04:40:49;34.53;;;18.03;;
8737;SDS011;4405;49.272;8.590;2022-12-18T04:43:16;39.93;;;18.93;;
8737;SDS011;4405;49.272;8.590;2022-12-18T04:45:42;38.60;;;17.83;;
8737;SDS011;4405;49.272;8.590;2022-12-18T04:48:09;41.30;;;18.53;;
8737;SDS011;4405;49.272;8.590;2022-12-18T04:50:35;35.27;;;17.87;;
8737;SDS011;4405;49.272;8.590;2022-12-18T04:53:02;36.23;;;18.13;;
8737;SDS011;4405;49.272;8.590;2022-12-18T04:55:28;35.33;;;16.67;;
8737;SDS011;4405;49.272;8.590;2022-12-18T04:57:54;40.83;;;18.40;;
8737;SDS011;4405;49.272;8.590;2022-12-18T05:00:22;34.97;;;18.07;;
8737;SDS011;4405;49.272;8.590;2022-12-18T05:02:48;34.40;;;17.20;;
8737;SDS011;4405;49.272;8.590;2022-12-18T05:05:15;38.07;;;17.70;;
8737;SDS011;4405;49.272;8.590;2022-12-18T05:07:41;39.80;;;18.40;;
8737;SDS011;4405;49.272;8.590;2022-12-18T05:10:07;41.40;;;18.43;;
8737;SDS011;4405;49.272;8.590;2022-12-18T05:12:34;38.70;;;18.07;;
8737;SDS011;4405;49.272;8.590;2022-12-18T05:15:23;39.30;;;17.27;;
8737;SDS011;4405;49.272;8.590;2022-12-18T05:17:49;41.03;;;19.07;;
8737;SDS011;4405;49.272;8.590;2022-12-18T05:20:16;38.67;;;18.40;;
8737;SDS011;4405;49.272;8.590;2022-12-18T05:22:43;40.13;;;18.67;;
8737;SDS011;4405;49.272;8.590;2022-12-18T05:25:09;38.13;;;17.43;;
8737;SDS011;4405;49.272;8.590;2022-12-18T05:27:35;39.47;;;18.27;;
8737;SDS011;4405;49.272;8.590;2022-12-18T05:30:02;34.60;;;16.80;;
8737;SDS011;4405;49.272;8.590;2022-12-18T05:32:30;34.03;;;17.67;;
8737;SDS011;4405;49.272;8.590;2022-12-18T05:34:56;40.70;;;20.67;;
8737;SDS011;4405;49.272;8.590;2022-12-18T05:37:22;47.33;;;23.83;;
8737;SDS011;4405;49.272;8.590;2022-12-18T05:39:49;47.37;;;23.47;;
8737;SDS011;4405;49.272;8.590;2022-12-18T05:42:15;43.27;;;21.60;;
8737;SDS011;4405;49.272;8.590;2022-12-18T05:44:42;38.77;;;21.07;;
8737;SDS011;4405;49.272;8.590;2022-12-18T05:47:09;38.73;;;21.07;;
8737;SDS011;4405;49.272;8.590;2022-12-18T05:49:37;43.20;;;22.60;;
8737;SDS011;4405;49.272;8.590;2022-12-18T05:52:03;41.73;;;20.50;;
8737;SDS011;4405;49.272;8.590;2022-12-18T05:54:29;42.63;;;21.63;;
8737;SDS011;4405;49.272;8.590;2022-12-18T05:56:56;41.67;;;22.40;;
8737;SDS011;4405;49.272;8.590;2022-12-18T05:59:22;45.50;;;22.60;;
8737;SDS011;4405;49.272;8.590;2022-12-18T06:01:49;41.80;;;22.53;;
8737;SDS011;4405;49.272;8.590;2022-12-18T06:04:15;39.93;;;20.97;;
8737;SDS011;4405;49.272;8.590;2022-12-18T06:06:43;41.53;;;22.10;;
8737;SDS011;4405;49.272;8.590;2022-12-18T06:09:09;41.83;;;22.17;;
8737;SDS011;4405;49.272;8.590;2022-12-18T06:11:36;41.87;;;21.67;;
8737;SDS011;4405;49.272;8.590;2022-12-18T06:14:04;39.13;;;21.60;;
8737;SDS011;4405;49.272;8.590;2022-12-18T06:16:31;41.57;;;21.97;;
8737;SDS011;4405;49.272;8.590;2022-12-18T06:18:57;43.00;;;21.13;;
8737;SDS011;4405;49.272;8.590;2022-12-18T06:21:24;39.20;;;21.37;;
8737;SDS011;4405;49.272;8.590;2022-12-18T06:23:51;38.40;;;21.37;;
8737;SDS011;4405;49.272;8.590;2022-12-18T06:26:18;43.67;;;22.53;;
8737;SDS011;4405;49.272;8.590;2022-12-18T06:28:44;43.70;;;21.33;;
8737;SDS011;4405;49.272;8.590;2022-12-18T06:31:10;40.07;;;20.90;;
8737;SDS011;4405;49.272;8.590;2022-12-18T06:33:37;42.77;;;21.70;;
8737;SDS011;4405;49.272;8.590;2022-12-18T06:36:05;35.83;;;20.17;;
8737;SDS011;4405;49.272;8.590;2022-12-18T06:38:32;43.73;;;22.03;;
8737;SDS011;4405;49.272;8.590;2022-12-18T06:41:00;40.70;;;21.57;;
8737;SDS011;4405;49.272;8.590;2022-12-18T06:43:26;45.63;;;22.57;;
8737;SDS011;4405;49.272;8.590;2022-12-18T06:45:57;40.47;;;20.93;;
8737;SDS011;4405;49.272;8.590;2022-12-18T06:48:26;40.13;;;21.30;;
8737;SDS011;4405;49.272;8.590;2022-12-18T06:50:53;40.33;;;22.67;;
8737;SDS011;4405;49.272;8.590;2022-12-18T06:53:19;38.53;;;21.47;;
8737;SDS011;4405;49.272;8.590;2022-12-18T06:55:45;40.43;;;21.27;;
8737;SDS011;4405;49.272;8.590;2022-12-18T06:58:13;41.77;;;22.07;;
8737;SDS011;4405;49.272;8.590;2022-12-18T07:00:39;38.73;;;21.20;;
8737;SDS011;4405;49.272;8.590;2022-12-18T07:03:06;42.33;;;21.07;;
8737;SDS011;4405;49.272;8.590;2022-12-18T07:05:32;38.27;;;21.10;;
8737;SDS011;4405;49.272;8.590;2022-12-18T07:07:59;43.90;;;22.03;;
8737;SDS011;4405;49.272;8.590;2022-12-18T07:10:25;40.70;;;21.83;;
8737;SDS011;4405;49.272;8.590;2022-12-18T07:12:52;41.20;;;22.73;;
8737;SDS011;4405;49.272;8.590;2022-12-18T07:15:19;38.00;;;21.93;;
8737;SDS011;4405;49.272;8.590;2022-12-18T07:17:46;37.07;;;20.07;;
8737;SDS011;4405;49.272;8.590;2022-12-18T07:20:12;43.23;;;22.73;;
8737;SDS011;4405;49.272;8.590;2022-12-18T07:22:38;38.80;;;20.87;;
8737;SDS011;4405;49.272;8.590;2022-12-18T07:25:05;42.97;;;21.70;;
8737;SDS011;4405;49.272;8.590;2022-12-18T07:27:32;36.60;;;20.50;;
8737;SDS011;4405;49.272;8.590;2022-12-18T07:29:58;40.33;;;21.50;;
8737;SDS011;4405;49.272;8.590;2022-12-18T07:32:27;41.83;;;21.40;;
8737;SDS011;4405;49.272;8.590;2022-12-18T07:34:53;41.43;;;21.53;;
8737;SDS011;4405;49.272;8.590;2022-12-18T07:37:19;41.27;;;22.70;;
8737;SDS011;4405;49.272;8.590;2022-12-18T07:39:45;39.80;;;20.60;;
8737;SDS011;4405;49.272;8.590;2022-12-18T07:42:12;41.27;;;20.97;;
8737;SDS011;4405;49.272;8.590;2022-12-18T07:44:56;39.73;;;21.53;;
8737;SDS011;4405;49.272;8.590;2022-12-18T07:47:23;36.87;;;20.97;;
8737;SDS011;4405;49.272;8.590;2022-12-18T07:49:50;37.47;;;20.73;;
8737;SDS011;4405;49.272;8.590;2022-12-18T07:52:17;35.47;;;20.50;;
8737;SDS011;4405;49.272;8.590;2022-12-18T07:54:43;36.90;;;19.83;;
8737;SDS011;4405;49.272;8.590;2022-12-18T07:57:09;35.37;;;19.70;;
8737;SDS011;4405;49.272;8.590;2022-12-18T07:59:36;38.33;;;20.63;;
8737;SDS011;4405;49.272;8.590;2022-12-18T08:02:03;39.90;;;20.67;;
8737;SDS011;4405;49.272;8.590;2022-12-18T08:04:29;40.97;;;21.30;;
8737;SDS011;4405;49.272;8.590;2022-12-18T08:06:57;39.70;;;21.87;;
8737;SDS011;4405;49.272;8.590;2022-12-18T08:09:23;38.33;;;21.50;;
8737;SDS011;4405;49.272;8.590;2022-12-18T08:11:49;38.60;;;21.27;;
8737;SDS011;4405;49.272;8.590;2022-12-18T08:14:16;36.87;;;20.93;;
8737;SDS011;4405;49.272;8.590;2022-12-18T08:16:42;38.20;;;21.93;;
8737;SDS011;4405;49.272;8.590;2022-12-18T08:19:08;38.57;;;21.83;;
8737;SDS011;4405;49.272;8.590;2022-12-18T08:21:35;42.80;;;21.83;;
8737;SDS011;4405;49.272;8.590;2022-12-18T08:24:03;41.83;;;22.17;;
8737;SDS011;4405;49.272;8.590;2022-12-18T08:26:30;39.63;;;22.27;;
8737;SDS011;4405;49.272;8.590;2022-12-18T08:28:56;40.57;;;22.30;;
8737;SDS011;4405;49.272;8.590;2022-12-18T08:31:23;45.57;;;24.30;;
8737;SDS011;4405;49.272;8.590;2022-12-18T08:33:50;38.33;;;21.87;;
8737;SDS011;4405;49.272;8.590;2022-12-18T08:36:17;42.47;;;25.03;;
8737;SDS011;4405;49.272;8.590;2022-12-18T08:38:44;41.53;;;24.90;;
8737;SDS011;4405;49.272;8.590;2022-12-18T08:41:12;36.23;;;20.97;;
8737;SDS011;4405;49.272;8.590;2022-12-18T08:43:39;39.63;;;22.53;;
8737;SDS011;4405;49.272;8.590;2022-12-18T08:46:24;42.10;;;22.57;;
8737;SDS011;4405;49.272;8.590;2022-12-18T08:48:51;36.87;;;21.90;;
8737;SDS011;4405;49.272;8.590;2022-12-18T08:51:18;38.77;;;21.70;;
8737;SDS011;4405;49.272;8.590;2022-12-18T08:53:45;38.97;;;22.30;;
8737;SDS011;4405;49.272;8.590;2022-12-18T08:56:13;40.00;;;23.37;;
8737;SDS011;4405;49.272;8.590;2022-12-18T08:58:40;38.83;;;21.73;;
8737;SDS011;4405;49.272;8.590;2022-12-18T09:01:07;36.17;;;20.43;;
8737;SDS011;4405;49.272;8.590;2022-12-18T09:03:34;34.70;;;21.17;;
8737;SDS011;4405;49.272;8.590;2022-12-18T09:06:00;37.60;;;21.67;;
8737;SDS011;4405;49.272;8.590;2022-12-18T09:08:27;36.20;;;20.80;;
8737;SDS011;4405;49.272;8.590;2022-12-18T09:10:53;35.93;;;20.13;;
8737;SDS011;4405;49.272;8.590;2022-12-18T09:13:21;41.07;;;23.60;;
8737;SDS011;4405;49.272;8.590;2022-12-18T09:15:49;35.23;;;20.23;;
8737;SDS011;4405;49.272;8.590;2022-12-18T09:18:17;34.77;;;20.50;;
8737;SDS011;4405;49.272;8.590;2022-12-18T09:20:44;34.07;;;20.43;;
8737;SDS011;4405;49.272;8.590;2022-12-18T09:23:11;35.70;;;21.17;;
8737;SDS011;4405;49.272;8.590;2022-12-18T09:25:38;36.10;;;20.93;;
8737;SDS011;4405;49.272;8.590;2022-12-18T09:28:05;38.67;;;22.43;;
8737;SDS011;4405;49.272;8.590;2022-12-18T09:30:33;50.97;;;28.47;;
8737;SDS011;4405;49.272;8.590;2022-12-18T09:33:00;36.97;;;21.43;;
8737;SDS011;4405;49.272;8.590;2022-12-18T09:35:26;37.57;;;21.63;;
8737;SDS011;4405;49.272;8.590;2022-12-18T09:37:53;37.83;;;21.87;;
8737;SDS011;4405;49.272;8.590;2022-12-18T09:40:21;35.90;;;21.07;;
8737;SDS011;4405;49.272;8.590;2022-12-18T09:42:48;37.20;;;22.83;;
8737;SDS011;4405;49.272;8.590;2022-12-18T09:45:17;33.87;;;21.23;;
8737;SDS011;4405;49.272;8.590;2022-12-18T09:47:45;36.30;;;21.53;;
8737;SDS011;4405;49.272;8.590;2022-12-18T09:50:17;33.57;;;20.93;;
8737;SDS011;4405;49.272;8.590;2022-12-18T09:52:47;33.23;;;21.13;;
8737;SDS011;4405;49.272;8.590;2022-12-18T09:55:16;32.57;;;20.20;;
8737;SDS011;4405;49.272;8.590;2022-12-18T09:57:47;39.93;;;22.33;;
8737;SDS011;4405;49.272;8.590;2022-12-18T10:00:16;36.63;;;22.30;;
8737;SDS011;4405;49.272;8.590;2022-12-18T10:02:44;32.07;;;20.43;;
8737;SDS011;4405;49.272;8.590;2022-12-18T10:05:12;34.47;;;21.10;;
8737;SDS011;4405;49.272;8.590;2022-12-18T10:07:42;33.00;;;20.63;;
8737;SDS011;4405;49.272;8.590;2022-12-18T10:10:14;34.47;;;20.77;;
8737;SDS011;4405;49.272;8.590;2022-12-18T10:12:44;33.20;;;21.47;;
8737;SDS011;4405;49.272;8.590;2022-12-18T10:15:13;32.43;;;20.73;;
8737;SDS011;4405;49.272;8.590;2022-12-18T10:17:41;33.33;;;20.17;;
8737;SDS011;4405;49.272;8.590;2022-12-18T10:20:15;31.73;;;20.30;;
8737;SDS011;4405;49.272;8.590;2022-12-18T10:22:48;33.27;;;20.93;;
8737;SDS011;4405;49.272;8.590;2022-12-18T10:25:19;44.33;;;27.77;;
8737;SDS011;4405;49.272;8.590;2022-12-18T10:27:47;36.60;;;23.27;;
8737;SDS011;4405;49.272;8.590;2022-12-18T10:30:14;34.70;;;22.07;;
8737;SDS011;4405;49.272;8.590;2022-12-18T10:32:40;36.37;;;21.20;;
8737;SDS011;4405;49.272;8.590;2022-12-18T10:35:07;36.90;;;22.70;;
8737;SDS011;4405;49.272;8.590;2022-12-18T10:37:38;33.80;;;21.53;;
8737;SDS011;4405;49.272;8.590;2022-12-18T10:40:25;39.90;;;23.17;;
8737;SDS011;4405;49.272;8.590;2022-12-18T10:43:02;38.33;;;23.63;;
8737;SDS011;4405;49.272;8.590;2022-12-18T10:45:29;40.03;;;21.87;;
8737;SDS011;4405;49.272;8.590;2022-12-18T10:47:55;33.83;;;20.60;;
8737;SDS011;4405;49.272;8.590;2022-12-18T10:50:24;37.93;;;22.00;;
8737;SDS011;4405;49.272;8.590;2022-12-18T10:52:55;36.67;;;23.47;;
8737;SDS011;4405;49.272;8.590;2022-12-18T10:55:21;35.10;;;20.47;;
8737;SDS011;4405;49.272;8.590;2022-12-18T10:57:48;35.47;;;22.13;;
8737;SDS011;4405;49.272;8.590;2022-12-18T11:00:22;35.57;;;21.07;;
8737;SDS011;4405;49.272;8.590;2022-12-18T11:02:49;37.50;;;21.37;;
8737;SDS011;4405;49.272;8.590;2022-12-18T11:05:26;34.53;;;20.83;;
8737;SDS011;4405;49.272;8.590;2022-12-18T11:07:52;35.73;;;20.80;;
8737;SDS011;4405;49.272;8.590;2022-12-18T11:10:21;38.00;;;21.77;;
8737;SDS011;4405;49.272;8.590;2022-12-18T11:12:48;37.17;;;20.33;;
8737;SDS011;4405;49.272;8.590;2022-12-18T11:15:15;36.33;;;20.87;;
8737;SDS011;4405;49.272;8.590;2022-12-18T11:17:41;37.23;;;21.33;;
8737;SDS011;4405;49.272;8.590;2022-12-18T11:22:56;36.90;;;22.03;;
8737;SDS011;4405;49.272;8.590;2022-12-18T11:25:24;36.07;;;21.40;;
8737;SDS011;4405;49.272;8.590;2022-12-18T11:27:52;31.43;;;20.27;;
8737;SDS011;4405;49.272;8.590;2022-12-18T11:30:22;37.60;;;20.03;;
8737;SDS011;4405;49.272;8.590;2022-12-18T11:32:50;33.80;;;20.30;;
8737;SDS011;4405;49.272;8.590;2022-12-18T11:35:17;33.87;;;20.97;;
8737;SDS011;4405;49.272;8.590;2022-12-18T11:37:47;33.13;;;19.57;;
8737;SDS011;4405;49.272;8.590;2022-12-18T11:40:15;34.27;;;21.07;;
8737;SDS011;4405;49.272;8.590;2022-12-18T11:42:46;33.00;;;20.60;;
8737;SDS011;4405;49.272;8.590;2022-12-18T11:45:23;34.03;;;20.70;;
8737;SDS011;4405;49.272;8.590;2022-12-18T11:47:52;35.47;;;21.60;;
8737;SDS011;4405;49.272;8.590;2022-12-18T11:50:21;37.50;;;21.23;;
8737;SDS011;4405;49.272;8.590;2022-12-18T11:52:50;32.37;;;20.07;;
8737;SDS011;4405;49.272;8.590;2022-12-18T11:55:18;34.33;;;21.27;;
8737;SDS011;4405;49.272;8.590;2022-12-18T11:57:51;35.47;;;20.97;;
8737;SDS011;4405;49.272;8.590;2022-12-18T12:00:20;37.47;;;21.43;;
8737;SDS011;4405;49.272;8.590;2022-12-18T12:05:42;35.63;;;20.93;;
8737;SDS011;4405;49.272;8.590;2022-12-18T12:08:13;37.20;;;21.03;;
8737;SDS011;4405;49.272;8.590;2022-12-18T12:10:43;37.37;;;21.20;;
8737;SDS011;4405;49.272;8.590;2022-12-18T12:13:19;37.37;;;21.40;;
8737;SDS011;4405;49.272;8.590;2022-12-18T12:15:50;34.17;;;20.77;;
8737;SDS011;4405;49.272;8.590;2022-12-18T12:18:24;35.47;;;21.43;;
8737;SDS011;4405;49.272;8.590;2022-12-18T12:20:57;40.40;;;21.97;;
8737;SDS011;4405;49.272;8.590;2022-12-18T12:23:26;34.27;;;20.90;;
8737;SDS011;4405;49.272;8.590;2022-12-18T12:25:59;34.53;;;21.67;;
8737;SDS011;4405;49.272;8.590;2022-12-18T12:28:31;36.37;;;21.63;;
8737;SDS011;4405;49.272;8.590;2022-12-18T12:31:03;35.97;;;21.33;;
8737;SDS011;4405;49.272;8.590;2022-12-18T12:33:36;35.77;;;20.90;;
8737;SDS011;4405;49.272;8.590;2022-12-18T12:36:08;33.93;;;20.97;;
8737;SDS011;4405;49.272;8.590;2022-12-18T12:38:40;37.20;;;21.87;;
8737;SDS011;4405;49.272;8.590;2022-12-18T12:41:08;38.10;;;21.90;;
8737;SDS011;4405;49.272;8.590;2022-12-18T12:43:58;38.83;;;22.33;;
8737;SDS011;4405;49.272;8.590;2022-12-18T12:46:26;35.00;;;20.33;;
8737;SDS011;4405;49.272;8.590;2022-12-18T12:48:52;36.57;;;21.47;;
8737;SDS011;4405;49.272;8.590;2022-12-18T12:51:20;40.67;;;23.00;;
8737;SDS011;4405;49.272;8.590;2022-12-18T12:53:47;34.90;;;20.73;;
8737;SDS011;4405;49.272;8.590;2022-12-18T12:56:15;36.87;;;21.47;;
8737;SDS011;4405;49.272;8.590;2022-12-18T12:58:48;38.53;;;21.27;;
8737;SDS011;4405;49.272;8.590;2022-12-18T13:01:22;37.47;;;21.77;;
8737;SDS011;4405;49.272;8.590;2022-12-18T13:03:54;40.27;;;21.83;;
8737;SDS011;4405;49.272;8.590;2022-12-18T13:06:24;38.10;;;22.43;;
8737;SDS011;4405;49.272;8.590;2022-12-18T13:08:55;35.97;;;22.07;;
8737;SDS011;4405;49.272;8.590;2022-12-18T13:11:28;39.47;;;22.90;;
8737;SDS011;4405;49.272;8.590;2022-12-18T13:14:19;39.60;;;21.97;;
8737;SDS011;4405;49.272;8.590;2022-12-18T13:16:47;34.00;;;20.00;;
8737;SDS011;4405;49.272;8.590;2022-12-18T13:19:19;38.07;;;21.77;;
8737;SDS011;4405;49.272;8.590;2022-12-18T13:21:51;37.37;;;22.43;;
8737;SDS011;4405;49.272;8.590;2022-12-18T13:24:22;39.87;;;22.13;;
8737;SDS011;4405;49.272;8.590;2022-12-18T13:26:49;37.93;;;21.17;;
8737;SDS011;4405;49.272;8.590;2022-12-18T13:29:22;40.27;;;22.33;;
8737;SDS011;4405;49.272;8.590;2022-12-18T13:32:10;37.73;;;21.63;;
8737;SDS011;4405;49.272;8.590;2022-12-18T13:34:44;39.03;;;20.93;;
8737;SDS011;4405;49.272;8.590;2022-12-18T13:39:55;42.67;;;24.27;;
8737;SDS011;4405;49.272;8.590;2022-12-18T13:42:32;41.37;;;22.17;;
8737;SDS011;4405;49.272;8.590;2022-12-18T13:45:35;39.80;;;22.63;;
8737;SDS011;4405;49.272;8.590;2022-12-18T13:48:04;38.97;;;21.37;;
8737;SDS011;4405;49.272;8.590;2022-12-18T13:50:31;36.73;;;20.97;;
8737;SDS011;4405;49.272;8.590;2022-12-18T13:52:57;46.13;;;25.07;;
8737;SDS011;4405;49.272;8.590;2022-12-18T13:55:23;48.93;;;25.70;;
8737;SDS011;4405;49.272;8.590;2022-12-18T13:57:50;40.00;;;23.10;;
8737;SDS011;4405;49.272;8.590;2022-12-18T14:00:29;41.40;;;22.50;;
8737;SDS011;4405;49.272;8.590;2022-12-18T14:02:55;37.90;;;21.33;;
8737;SDS011;4405;49.272;8.590;2022-12-18T14:05:23;34.33;;;20.57;;
8737;SDS011;4405;49.272;8.590;2022-12-18T14:07:50;37.23;;;21.83;;
8737;SDS011;4405;49.272;8.590;2022-12-18T14:10:16;37.73;;;21.47;;
8737;SDS011;4405;49.272;8.590;2022-12-18T14:12:44;40.70;;;22.50;;
8737;SDS011;4405;49.272;8.590;2022-12-18T14:15:26;42.47;;;22.63;;
8737;SDS011;4405;49.272;8.590;2022-12-18T14:17:57;40.17;;;22.37;;
8737;SDS011;4405;49.272;8.590;2022-12-18T14:20:25;40.00;;;20.97;;
8737;SDS011;4405;49.272;8.590;2022-12-18T14:22:52;39.73;;;21.87;;
8737;SDS011;4405;49.272;8.590;2022-12-18T14:25:19;44.60;;;22.43;;
8737;SDS011;4405;49.272;8.590;2022-12-18T14:27:46;40.77;;;21.90;;
8737;SDS011;4405;49.272;8.590;2022-12-18T14:30:26;37.83;;;21.87;;
8737;SDS011;4405;49.272;8.590;2022-12-18T14:32:59;40.50;;;23.00;;
8737;SDS011;4405;49.272;8.590;2022-12-18T14:35:27;42.83;;;23.40;;
8737;SDS011;4405;49.272;8.590;2022-12-18T14:37:55;42.20;;;23.13;;
8737;SDS011;4405;49.272;8.590;2022-12-18T14:40:33;39.50;;;22.03;;
8737;SDS011;4405;49.272;8.590;2022-12-18T14:42:59;39.70;;;22.10;;
8737;SDS011;4405;49.272;8.590;2022-12-18T14:45:35;39.97;;;23.53;;
8737;SDS011;4405;49.272;8.590;2022-12-18T14:48:05;41.47;;;21.57;;
8737;SDS011;4405;49.272;8.590;2022-12-18T14:50:33;40.97;;;23.53;;
8737;SDS011;4405;49.272;8.590;2022-12-18T14:52:59;44.60;;;22.57;;
8737;SDS011;4405;49.272;8.590;2022-12-18T14:55:26;43.53;;;24.40;;
8737;SDS011;4405;49.272;8.590;2022-12-18T14:57:54;41.50;;;22.60;;
8737;SDS011;4405;49.272;8.590;2022-12-18T15:00:22;43.70;;;24.00;;
8737;SDS011;4405;49.272;8.590;2022-12-18T15:02:50;51.63;;;26.77;;
8737;SDS011;4405;49.272;8.590;2022-12-18T15:05:18;61.97;;;30.70;;